Time;durP1;ratioP1;P1;durP2;ratioP2;P2;SDS_P1;SDS_P2;PMS_P1;PMS_P2;Temp;Humidity;BMP_temperature;BMP_pressure;BME280_temperature;BME280_humidity;BME280_pressure;Samples;Min_cycle;Max_cycle;Signal;HPM_P1;HPM_P2
2022/01/10 00:00:36;;;;;;;36.35;8.05;;;;;;;;;;5147078;27;20039;-68
2022/01/10 00:03:03;;;;;;;37.42;8.88;;;;;;;;;;5151517;27;20118;-68
2022/01/10 00:05:29;;;;;;;33.25;7.55;;;;;;;;;;5147897;27;20031;-67
2022/01/10 00:07:55;;;;;;;35.00;8.15;;;;;;;;;;5148295;27;20130;-68
2022/01/10 00:10:21;;;;;;;43.67;9.85;;;;;;;;;;5154680;27;20074;-67
2022/01/10 00:12:48;;;;;;;32.20;8.52;;;;;;;;;;5148137;27;20078;-68
2022/01/10 00:15:16;;;;;;;28.75;8.32;;;;;;;;;;5148052;27;20314;-68
2022/01/10 00:17:43;;;;;;;30.42;7.97;;;;;;;;;;5147025;27;20047;-67
2022/01/10 00:20:10;;;;;;;37.33;8.25;;;;;;;;;;5148348;27;20134;-68
2022/01/10 00:22:37;;;;;;;41.13;7.97;;;;;;;;;;5148092;27;20077;-67
2022/01/10 00:25:04;;;;;;;38.28;9.05;;;;;;;;;;5148505;27;20051;-68
2022/01/10 00:27:30;;;;;;;30.57;7.93;;;;;;;;;;5147842;27;20043;-68
2022/01/10 00:29:56;;;;;;;40.70;9.60;;;;;;;;;;5148540;27;20050;-68
2022/01/10 00:32:25;;;;;;;26.50;8.30;;;;;;;;;;5147877;27;20043;-68
2022/01/10 00:34:51;;;;;;;39.67;10.18;;;;;;;;;;5147654;27;20139;-68
2022/01/10 00:37:18;;;;;;;34.80;8.52;;;;;;;;;;5145669;27;20047;-67
2022/01/10 00:39:46;;;;;;;44.95;8.73;;;;;;;;;;5153378;27;20049;-67
2022/01/10 00:42:13;;;;;;;37.22;8.27;;;;;;;;;;5168187;27;20042;-68
2022/01/10 00:44:45;;;;;;;35.60;8.13;;;;;;;;;;5168179;27;20074;-67
2022/01/10 00:47:11;;;;;;;35.58;9.10;;;;;;;;;;5168312;27;20039;-68
2022/01/10 00:49:37;;;;;;;37.42;8.30;;;;;;;;;;5164076;27;20078;-67
2022/01/10 00:52:04;;;;;;;27.48;8.45;;;;;;;;;;5146688;27;20039;-67
2022/01/10 00:54:30;;;;;;;27.77;7.57;;;;;;;;;;5147967;27;20078;-67
2022/01/10 00:56:56;;;;;;;32.25;8.18;;;;;;;;;;5145740;27;20292;-68
2022/01/10 00:59:22;;;;;;;28.40;7.10;;;;;;;;;;5148949;27;20713;-68
2022/01/10 01:01:48;;;;;;;29.88;8.32;;;;;;;;;;5168060;27;20129;-68
2022/01/10 01:04:15;;;;;;;42.00;9.40;;;;;;;;;;5167833;27;20446;-68
2022/01/10 01:06:41;;;;;;;33.33;9.55;;;;;;;;;;5164736;27;20046;-68
2022/01/10 01:09:10;;;;;;;38.05;10.30;;;;;;;;;;5166608;27;20043;-68
2022/01/10 01:14:26;;;;;;;34.00;9.80;;;;;;;;;;5168000;27;20085;-68
2022/01/10 01:17:12;;;;;;;30.25;8.77;;;;;;;;;;5160651;27;20047;-68
2022/01/10 01:25:22;;;;;;;32.90;8.88;;;;;;;;;;5102625;28;20063;-68
2022/01/10 01:27:51;;;;;;;42.55;8.82;;;;;;;;;;5095701;28;20095;-68
2022/01/10 01:30:18;;;;;;;45.10;8.88;;;;;;;;;;5083290;28;20123;-68
2022/01/10 01:32:44;;;;;;;41.63;10.13;;;;;;;;;;5083237;28;20072;-68
2022/01/10 01:35:10;;;;;;;34.33;9.02;;;;;;;;;;5065179;28;20103;-68
2022/01/10 01:37:37;;;;;;;46.55;10.52;;;;;;;;;;5087015;28;20040;-68
2022/01/10 01:40:05;;;;;;;37.95;9.25;;;;;;;;;;5103040;28;20051;-68
2022/01/10 01:42:42;;;;;;;34.78;9.60;;;;;;;;;;5102986;28;20036;-68
2022/01/10 01:45:11;;;;;;;44.85;9.65;;;;;;;;;;5085907;28;20062;-68
2022/01/10 01:47:38;;;;;;;54.30;11.50;;;;;;;;;;5099032;28;20071;-68
2022/01/10 01:50:06;;;;;;;39.58;9.77;;;;;;;;;;5092850;28;20036;-68
2022/01/10 01:52:32;;;;;;;39.33;10.30;;;;;;;;;;5103014;28;20052;-68
2022/01/10 01:54:59;;;;;;;43.63;9.85;;;;;;;;;;5102085;28;20605;-68
2022/01/10 01:57:26;;;;;;;40.88;10.70;;;;;;;;;;5112090;27;20078;-68
2022/01/10 01:59:52;;;;;;;42.53;10.35;;;;;;;;;;5167361;27;20050;-68
2022/01/10 02:02:19;;;;;;;44.92;11.70;;;;;;;;;;5166936;27;20054;-68
2022/01/10 02:04:45;;;;;;;51.15;12.52;;;;;;;;;;5167012;27;20080;-68
2022/01/10 02:07:11;;;;;;;48.08;11.98;;;;;;;;;;5165697;27;20039;-68
2022/01/10 02:09:37;;;;;;;53.58;12.93;;;;;;;;;;5146202;27;20039;-68
2022/01/10 02:12:04;;;;;;;43.13;11.25;;;;;;;;;;5145775;27;20099;-68
2022/01/10 02:14:30;;;;;;;50.20;11.00;;;;;;;;;;5145061;27;20054;-68
2022/01/10 02:16:57;;;;;;;53.80;12.20;;;;;;;;;;5145841;27;20039;-68
2022/01/10 02:19:24;;;;;;;37.22;10.98;;;;;;;;;;5164167;27;20046;-68
2022/01/10 02:21:50;;;;;;;48.22;11.38;;;;;;;;;;5165974;27;20047;-68
2022/01/10 02:24:16;;;;;;;53.55;12.23;;;;;;;;;;5166629;27;20497;-68
2022/01/10 02:26:47;;;;;;;41.00;13.77;;;;;;;;;;5166262;27;20528;-68
2022/01/10 02:29:13;;;;;;;44.38;12.90;;;;;;;;;;5149973;27;20058;-68
2022/01/10 02:31:40;;;;;;;42.60;11.18;;;;;;;;;;5145567;27;20055;-68
2022/01/10 02:34:06;;;;;;;46.85;12.65;;;;;;;;;;5144429;27;20066;-68
2022/01/10 02:36:33;;;;;;;46.35;11.48;;;;;;;;;;5144919;27;20051;-68
2022/01/10 02:39:04;;;;;;;42.05;12.23;;;;;;;;;;5155198;27;20050;-68
2022/01/10 02:41:35;;;;;;;41.08;13.18;;;;;;;;;;5145395;27;20043;-68
2022/01/10 02:44:02;;;;;;;34.22;12.65;;;;;;;;;;5145933;27;20031;-68
2022/01/10 02:46:31;;;;;;;42.30;12.70;;;;;;;;;;5145797;28;20072;-68
2022/01/10 02:48:57;;;;;;;57.97;13.43;;;;;;;;;;5145294;28;20064;-68
2022/01/10 02:51:24;;;;;;;50.85;13.30;;;;;;;;;;5162427;27;20047;-67
2022/01/10 02:53:50;;;;;;;52.67;13.70;;;;;;;;;;5166344;27;20043;-68
2022/01/10 02:56:16;;;;;;;51.20;12.88;;;;;;;;;;5166079;27;20356;-68
2022/01/10 02:58:42;;;;;;;47.92;13.43;;;;;;;;;;5166412;27;20152;-68
2022/01/10 03:01:09;;;;;;;41.95;12.85;;;;;;;;;;5164995;27;20059;-68
2022/01/10 03:03:35;;;;;;;55.28;13.50;;;;;;;;;;5160863;27;20031;-68
2022/01/10 03:06:01;;;;;;;41.47;12.02;;;;;;;;;;5145873;27;20126;-68
2022/01/10 03:08:29;;;;;;;49.05;12.63;;;;;;;;;;5149705;27;20047;-68
2022/01/10 03:10:55;;;;;;;52.92;12.77;;;;;;;;;;5158244;27;20053;-68
2022/01/10 03:13:21;;;;;;;46.22;12.80;;;;;;;;;;5170454;27;20067;-68
2022/01/10 03:15:48;;;;;;;47.30;13.43;;;;;;;;;;5170014;27;20117;-68
2022/01/10 03:18:14;;;;;;;39.17;12.02;;;;;;;;;;5170516;27;20081;-67
2022/01/10 03:20:40;;;;;;;45.10;14.02;;;;;;;;;;5169496;27;20054;-67
2022/01/10 03:23:07;;;;;;;49.30;15.35;;;;;;;;;;5170065;27;20102;-68
2022/01/10 03:25:33;;;;;;;36.72;13.40;;;;;;;;;;5153490;27;20051;-68
2022/01/10 03:27:59;;;;;;;47.35;13.73;;;;;;;;;;5148997;27;20126;-68
2022/01/10 03:30:26;;;;;;;49.00;14.68;;;;;;;;;;5149191;27;20035;-68
2022/01/10 03:32:52;;;;;;;53.35;12.98;;;;;;;;;;5149147;27;20084;-68
2022/01/10 03:35:19;;;;;;;52.10;15.98;;;;;;;;;;5148383;27;20062;-68
2022/01/10 03:37:45;;;;;;;44.30;14.40;;;;;;;;;;5148913;27;20043;-68
2022/01/10 03:40:11;;;;;;;49.03;14.73;;;;;;;;;;5156935;27;20493;-68
2022/01/10 03:42:37;;;;;;;53.22;14.90;;;;;;;;;;5169483;27;20038;-68
2022/01/10 03:45:04;;;;;;;45.28;14.65;;;;;;;;;;5169514;27;20126;-68
2022/01/10 03:47:31;;;;;;;50.22;14.32;;;;;;;;;;5164098;27;20035;-68
2022/01/10 03:49:57;;;;;;;44.63;15.05;;;;;;;;;;5148973;27;20106;-68
2022/01/10 03:52:23;;;;;;;51.10;14.75;;;;;;;;;;5148721;27;20043;-68
2022/01/10 03:54:49;;;;;;;57.38;14.60;;;;;;;;;;5169310;27;20050;-68
2022/01/10 03:57:15;;;;;;;58.97;15.65;;;;;;;;;;5169103;27;20098;-68
2022/01/10 03:59:42;;;;;;;48.70;15.43;;;;;;;;;;5169432;27;20463;-68
2022/01/10 04:02:08;;;;;;;51.10;15.68;;;;;;;;;;5169154;27;20070;-68
2022/01/10 04:04:36;;;;;;;50.63;16.05;;;;;;;;;;5169475;27;20118;-68
2022/01/10 04:07:03;;;;;;;62.13;17.17;;;;;;;;;;5168982;27;20041;-68
2022/01/10 04:09:29;;;;;;;57.88;16.10;;;;;;;;;;5152355;27;20514;-68
2022/01/10 04:11:55;;;;;;;62.22;17.30;;;;;;;;;;5148069;27;20118;-68
2022/01/10 04:14:21;;;;;;;56.17;16.55;;;;;;;;;;5148426;27;20049;-68
2022/01/10 04:16:47;;;;;;;57.95;16.30;;;;;;;;;;5148180;27;20039;-68
2022/01/10 04:19:13;;;;;;;55.28;16.95;;;;;;;;;;5146162;27;20098;-68
2022/01/10 04:21:40;;;;;;;72.50;18.08;;;;;;;;;;5149409;27;20826;-68
2022/01/10 04:24:06;;;;;;;72.18;18.80;;;;;;;;;;5169008;27;20068;-68
2022/01/10 04:26:32;;;;;;;59.95;16.98;;;;;;;;;;5168526;27;20031;-67
2022/01/10 04:28:58;;;;;;;57.88;19.60;;;;;;;;;;5168898;27;20110;-68
2022/01/10 04:31:24;;;;;;;68.43;19.80;;;;;;;;;;5168642;27;20398;-68
2022/01/10 04:33:50;;;;;;;55.22;18.85;;;;;;;;;;5167495;27;20039;-68
2022/01/10 04:36:17;;;;;;;62.75;18.63;;;;;;;;;;5166692;27;20133;-68
2022/01/10 04:38:43;;;;;;;68.57;19.55;;;;;;;;;;5146658;27;20043;-68
2022/01/10 04:41:09;;;;;;;62.50;19.40;;;;;;;;;;5147909;27;20118;-68
2022/01/10 04:43:37;;;;;;;73.80;20.08;;;;;;;;;;5147616;27;20047;-68
2022/01/10 04:46:03;;;;;;;63.17;20.58;;;;;;;;;;5147555;27;20081;-68
2022/01/10 04:48:30;;;;;;;54.05;20.10;;;;;;;;;;5147866;27;20073;-68
2022/01/10 04:51:16;;;;;;;71.55;21.80;;;;;;;;;;5152695;27;20082;-68
2022/01/10 04:53:45;;;;;;;74.85;21.55;;;;;;;;;;5147717;27;20050;-68
2022/01/10 04:56:11;;;;;;;71.30;22.88;;;;;;;;;;5147267;27;20530;-68
2022/01/10 04:58:37;;;;;;;63.25;21.73;;;;;;;;;;5147213;27;20068;-68
2022/01/10 05:01:04;;;;;;;76.28;22.63;;;;;;;;;;5147338;27;20130;-68
2022/01/10 05:03:31;;;;;;;66.07;22.87;;;;;;;;;;5147489;27;20059;-68
2022/01/10 05:05:57;;;;;;;74.80;23.27;;;;;;;;;;5159877;27;20295;-68
2022/01/10 05:08:24;;;;;;;103.82;30.77;;;;;;;;;;5155188;27;20075;-68
2022/01/10 05:10:50;;;;;;;110.30;31.25;;;;;;;;;;5146947;27;20043;-68
2022/01/10 05:13:17;;;;;;;103.45;32.03;;;;;;;;;;5146945;27;20043;-68
2022/01/10 05:15:46;;;;;;;89.63;28.25;;;;;;;;;;5147116;27;20049;-68
2022/01/10 05:18:12;;;;;;;87.97;25.40;;;;;;;;;;5147110;27;20067;-68
2022/01/10 05:20:38;;;;;;;91.72;27.73;;;;;;;;;;5158862;27;20046;-68
2022/01/10 05:23:04;;;;;;;80.95;25.38;;;;;;;;;;5166287;27;20053;-68
2022/01/10 05:25:32;;;;;;;95.15;27.83;;;;;;;;;;5167656;27;20043;-68
2022/01/10 05:27:58;;;;;;;85.85;27.85;;;;;;;;;;5167481;27;20133;-68
2022/01/10 05:30:24;;;;;;;81.18;28.20;;;;;;;;;;5167538;27;20046;-68
2022/01/10 05:32:51;;;;;;;89.93;28.45;;;;;;;;;;5167522;27;20053;-68
2022/01/10 05:35:17;;;;;;;76.13;27.63;;;;;;;;;;5146052;27;20103;-68
2022/01/10 05:37:44;;;;;;;84.13;27.02;;;;;;;;;;5146641;27;20047;-68
2022/01/10 05:40:10;;;;;;;95.87;29.30;;;;;;;;;;5145384;27;20055;-68
2022/01/10 05:42:36;;;;;;;93.60;29.98;;;;;;;;;;5146136;27;20043;-68
2022/01/10 05:45:03;;;;;;;92.65;30.08;;;;;;;;;;5146485;27;20133;-68
2022/01/10 05:47:29;;;;;;;81.20;30.33;;;;;;;;;;5167311;27;20042;-68
2022/01/10 05:50:01;;;;;;;112.35;30.83;;;;;;;;;;5167256;27;20121;-68
2022/01/10 05:52:27;;;;;;;89.78;32.03;;;;;;;;;;5167094;27;20102;-68
2022/01/10 05:54:53;;;;;;;104.70;34.72;;;;;;;;;;5166951;27;20073;-68
2022/01/10 05:57:19;;;;;;;98.00;33.55;;;;;;;;;;5161093;27;20049;-68
2022/01/10 05:59:45;;;;;;;104.60;34.85;;;;;;;;;;5154658;27;20030;-68
2022/01/10 06:02:11;;;;;;;104.05;36.20;;;;;;;;;;5167065;27;20046;-68
2022/01/10 06:04:38;;;;;;;112.80;35.65;;;;;;;;;;5165656;27;20406;-68
2022/01/10 06:07:04;;;;;;;120.97;35.03;;;;;;;;;;5166341;27;20035;-68
2022/01/10 06:09:30;;;;;;;106.75;34.28;;;;;;;;;;5165575;27;20079;-68
2022/01/10 06:11:56;;;;;;;117.70;35.97;;;;;;;;;;5166422;27;20125;-68
2022/01/10 06:14:22;;;;;;;133.63;38.00;;;;;;;;;;5150559;27;20055;-68
2022/01/10 06:16:48;;;;;;;134.32;37.97;;;;;;;;;;5146051;27;20124;-68
2022/01/10 06:19:14;;;;;;;131.52;38.38;;;;;;;;;;5146124;27;20043;-68
2022/01/10 06:21:40;;;;;;;125.80;39.80;;;;;;;;;;5145018;27;20036;-68
2022/01/10 06:24:07;;;;;;;124.25;43.83;;;;;;;;;;5145891;27;20074;-68
2022/01/10 06:26:33;;;;;;;126.97;42.40;;;;;;;;;;5146895;27;20066;-68
2022/01/10 06:28:59;;;;;;;124.80;45.75;;;;;;;;;;5165984;27;20042;-68
2022/01/10 06:31:25;;;;;;;117.88;41.90;;;;;;;;;;5166720;27;20098;-68
2022/01/10 06:33:51;;;;;;;138.20;42.92;;;;;;;;;;5165253;27;20057;-68
2022/01/10 06:36:17;;;;;;;141.68;45.83;;;;;;;;;;5165896;27;20086;-68
2022/01/10 06:38:44;;;;;;;137.52;44.97;;;;;;;;;;5157506;27;20043;-68
2022/01/10 06:41:10;;;;;;;144.27;48.13;;;;;;;;;;5145135;27;20043;-68
2022/01/10 06:43:37;;;;;;;121.47;45.33;;;;;;;;;;5146274;27;20083;-68
2022/01/10 06:46:04;;;;;;;123.30;43.50;;;;;;;;;;5150202;27;20039;-68
2022/01/10 06:48:30;;;;;;;127.40;44.20;;;;;;;;;;5150623;27;20043;-68
2022/01/10 06:50:56;;;;;;;155.05;48.70;;;;;;;;;;5144977;27;20142;-68
2022/01/10 06:53:22;;;;;;;120.90;43.65;;;;;;;;;;5145440;27;20068;-68
2022/01/10 06:55:49;;;;;;;148.15;46.58;;;;;;;;;;5145283;27;20114;-68
2022/01/10 06:58:15;;;;;;;139.90;46.42;;;;;;;;;;5145767;27;20126;-68
2022/01/10 07:00:42;;;;;;;149.70;47.90;;;;;;;;;;5145132;27;20051;-68
2022/01/10 07:03:08;;;;;;;140.63;47.70;;;;;;;;;;5152780;27;20042;-69
2022/01/10 07:05:34;;;;;;;124.00;47.85;;;;;;;;;;5164418;27;20062;-69
2022/01/10 07:08:00;;;;;;;143.57;49.00;;;;;;;;;;5165594;27;20051;-68
2022/01/10 07:10:26;;;;;;;140.98;47.28;;;;;;;;;;5165935;27;20051;-68
2022/01/10 07:12:53;;;;;;;119.13;47.45;;;;;;;;;;5166015;27;20038;-68
2022/01/10 07:15:20;;;;;;;139.93;48.53;;;;;;;;;;5164414;27;20051;-68
2022/01/10 07:17:46;;;;;;;143.88;50.28;;;;;;;;;;5166148;27;20043;-68
2022/01/10 07:20:13;;;;;;;148.95;50.05;;;;;;;;;;5147966;27;20350;-68
2022/01/10 07:22:39;;;;;;;136.50;51.92;;;;;;;;;;5161516;27;20055;-68
2022/01/10 07:25:05;;;;;;;145.77;49.22;;;;;;;;;;5151171;27;20134;-68
2022/01/10 07:27:31;;;;;;;165.70;53.13;;;;;;;;;;5145220;28;20169;-68
2022/01/10 07:29:59;;;;;;;174.23;52.92;;;;;;;;;;5145050;28;20073;-68
2022/01/10 07:32:29;;;;;;;133.70;50.55;;;;;;;;;;5144995;27;20102;-68
2022/01/10 07:34:55;;;;;;;158.98;50.92;;;;;;;;;;5145217;27;20047;-68
2022/01/10 07:37:21;;;;;;;145.48;50.85;;;;;;;;;;5144193;28;20051;-68
2022/01/10 07:39:47;;;;;;;157.07;51.25;;;;;;;;;;5154405;27;20054;-68
2022/01/10 07:42:14;;;;;;;171.95;52.80;;;;;;;;;;5165422;27;20042;-68
2022/01/10 07:44:40;;;;;;;157.65;53.67;;;;;;;;;;5165765;27;20047;-68
2022/01/10 07:47:08;;;;;;;156.00;53.67;;;;;;;;;;5148825;27;20035;-68
2022/01/10 07:49:34;;;;;;;;;;;;;;;;;;5151666;27;20157;-68
2022/01/10 07:52:00;;;;;;;163.50;52.95;;;;;;;;;;5143735;27;19924;-68
2022/01/10 07:54:26;;;;;;;156.52;54.92;;;;;;;;;;5146755;27;20035;-68
2022/01/10 07:56:53;;;;;;;167.02;55.78;;;;;;;;;;5139963;27;20554;-68
2022/01/10 07:59:19;;;;;;;170.57;54.70;;;;;;;;;;5148464;27;20051;-68
2022/01/10 08:01:47;;;;;;;179.93;55.90;;;;;;;;;;5149503;27;20138;-68
2022/01/10 08:04:13;;;;;;;181.85;55.42;;;;;;;;;;5148396;27;20039;-68
2022/01/10 08:06:39;;;;;;;159.02;53.85;;;;;;;;;;5147452;27;20043;-68
2022/01/10 08:09:06;;;;;;;168.73;56.53;;;;;;;;;;5148437;27;20058;-68
2022/01/10 08:11:32;;;;;;;161.02;53.75;;;;;;;;;;5148311;27;20039;-68
2022/01/10 08:13:58;;;;;;;172.50;54.25;;;;;;;;;;5149828;27;20047;-68
2022/01/10 08:16:25;;;;;;;140.05;50.92;;;;;;;;;;5149555;27;20371;-68
2022/01/10 08:18:51;;;;;;;146.95;53.70;;;;;;;;;;5148030;27;20422;-68
2022/01/10 08:21:17;;;;;;;151.85;54.40;;;;;;;;;;5166803;27;20134;-68
2022/01/10 08:23:43;;;;;;;177.52;58.55;;;;;;;;;;5153174;27;20045;-68
2022/01/10 08:26:10;;;;;;;156.63;56.38;;;;;;;;;;5148006;27;20050;-68
2022/01/10 08:28:36;;;;;;;158.88;55.33;;;;;;;;;;5145526;27;20050;-68
2022/01/10 08:31:03;;;;;;;146.55;57.42;;;;;;;;;;5147625;27;20043;-67
2022/01/10 08:33:29;;;;;;;165.55;55.58;;;;;;;;;;5146814;27;20321;-67
2022/01/10 08:35:55;;;;;;;142.90;55.28;;;;;;;;;;5145645;27;20059;-67
2022/01/10 08:38:21;;;;;;;187.95;61.40;;;;;;;;;;5147918;27;20478;-67
2022/01/10 08:40:48;;;;;;;186.45;59.72;;;;;;;;;;5147232;27;20039;-67
2022/01/10 08:43:16;;;;;;;157.98;56.97;;;;;;;;;;5148501;27;20034;-67
2022/01/10 08:45:42;;;;;;;159.73;56.67;;;;;;;;;;5151810;27;20079;-67
2022/01/10 08:48:09;;;;;;;140.30;54.70;;;;;;;;;;5149142;27;20035;-67
2022/01/10 08:50:35;;;;;;;164.18;56.70;;;;;;;;;;5151176;27;20152;-67
2022/01/10 08:53:05;;;;;;;171.30;56.33;;;;;;;;;;5141374;27;20100;-68
2022/01/10 08:55:31;;;;;;;158.98;54.60;;;;;;;;;;5142909;27;20047;-67
2022/01/10 08:57:58;;;;;;;168.25;59.08;;;;;;;;;;5145310;27;20039;-67
2022/01/10 09:00:24;;;;;;;149.32;56.20;;;;;;;;;;5143063;27;20043;-67
2022/01/10 09:02:50;;;;;;;146.15;52.38;;;;;;;;;;5145263;27;20050;-67
2022/01/10 09:05:16;;;;;;;163.32;55.05;;;;;;;;;;5139595;27;20043;-69
2022/01/10 09:07:42;;;;;;;161.68;58.05;;;;;;;;;;5138275;27;20414;-71
2022/01/10 09:10:09;;;;;;;146.50;54.40;;;;;;;;;;5145374;27;20399;-71
2022/01/10 09:12:35;;;;;;;158.13;57.28;;;;;;;;;;5140865;27;20047;-64
2022/01/10 09:15:01;;;;;;;157.27;56.50;;;;;;;;;;5143842;27;20375;-67
2022/01/10 09:17:28;;;;;;;136.18;54.22;;;;;;;;;;5145617;27;20043;-70
2022/01/10 09:19:54;;;;;;;137.57;52.65;;;;;;;;;;5133973;27;20043;-68
2022/01/10 09:22:20;;;;;;;147.35;53.70;;;;;;;;;;5136633;27;20043;-67
2022/01/10 09:24:46;;;;;;;142.98;53.92;;;;;;;;;;5133195;27;20462;-68
2022/01/10 09:27:16;;;;;;;127.10;52.05;;;;;;;;;;5142205;27;20051;-67
2022/01/10 09:29:45;;;;;;;129.23;52.47;;;;;;;;;;5143451;27;20043;-66
2022/01/10 09:32:11;;;;;;;110.55;50.20;;;;;;;;;;5144694;27;20047;-66
2022/01/10 09:34:37;;;;;;;136.68;55.20;;;;;;;;;;5137098;27;20435;-67
2022/01/10 09:37:04;;;;;;;121.78;49.85;;;;;;;;;;5142260;27;20077;-67
2022/01/10 09:39:30;;;;;;;134.75;53.70;;;;;;;;;;5140377;27;20039;-66
2022/01/10 09:41:57;;;;;;;103.65;47.42;;;;;;;;;;5135348;27;20042;-67
2022/01/10 09:44:24;;;;;;;121.38;47.10;;;;;;;;;;5142456;27;20035;-66
2022/01/10 09:46:50;;;;;;;121.90;50.53;;;;;;;;;;5143659;27;20102;-66
2022/01/10 09:49:17;;;;;;;105.38;46.25;;;;;;;;;;5140485;27;20483;-65
2022/01/10 09:51:43;;;;;;;107.00;46.37;;;;;;;;;;5143511;27;20047;-66
2022/01/10 09:54:10;;;;;;;103.38;48.25;;;;;;;;;;5138075;27;20043;-65
2022/01/10 09:56:36;;;;;;;95.70;43.78;;;;;;;;;;5140406;27;20107;-66
2022/01/10 09:59:02;;;;;;;96.90;42.28;;;;;;;;;;5141881;27;20035;-65
2022/01/10 10:01:30;;;;;;;112.53;47.92;;;;;;;;;;5141058;27;20103;-65
2022/01/10 10:03:59;;;;;;;105.65;45.35;;;;;;;;;;5140272;27;20043;-66
2022/01/10 10:06:26;;;;;;;94.90;41.80;;;;;;;;;;5143221;27;20414;-69
2022/01/10 10:08:52;;;;;;;88.25;39.08;;;;;;;;;;5143156;27;20055;-69
2022/01/10 10:11:18;;;;;;;78.53;40.22;;;;;;;;;;5144166;27;20035;-68
2022/01/10 10:13:51;;;;;;;83.47;39.13;;;;;;;;;;5140094;27;20074;-66
2022/01/10 10:16:18;;;;;;;84.30;37.95;;;;;;;;;;5144616;27;20047;-68
2022/01/10 10:18:47;;;;;;;89.68;41.13;;;;;;;;;;5140279;27;20031;-67
2022/01/10 10:21:21;;;;;;;85.68;39.00;;;;;;;;;;5143217;27;20078;-66
2022/01/10 10:23:49;;;;;;;81.45;38.05;;;;;;;;;;5144539;27;20078;-68
2022/01/10 10:26:21;;;;;;;73.35;36.92;;;;;;;;;;5142923;27;20050;-69
2022/01/10 10:28:48;;;;;;;78.18;34.45;;;;;;;;;;5142395;27;20035;-68
2022/01/10 10:31:23;;;;;;;71.40;34.83;;;;;;;;;;5142626;27;20371;-67
2022/01/10 10:33:50;;;;;;;58.28;31.42;;;;;;;;;;5134198;27;20095;-68
2022/01/10 10:36:17;;;;;;;;;;;;;;;;;;5130100;27;20073;-66
2022/01/10 10:38:44;;;;;;;62.13;30.80;;;;;;;;;;5130429;27;20394;-66
2022/01/10 10:41:10;;;;;;;72.18;31.45;;;;;;;;;;5132618;27;20052;-66
2022/01/10 10:43:38;;;;;;;60.60;27.70;;;;;;;;;;5129312;27;20049;-68
2022/01/10 10:46:10;;;;;;;56.90;28.83;;;;;;;;;;5129802;27;20051;-68
2022/01/10 10:48:38;;;;;;;60.33;26.48;;;;;;;;;;5132941;27;20043;-68
2022/01/10 10:51:04;;;;;;;49.70;24.38;;;;;;;;;;5130391;27;20055;-68
2022/01/10 10:53:30;;;;;;;43.22;22.40;;;;;;;;;;5128961;28;20036;-68
2022/01/10 10:56:00;;;;;;;46.85;22.70;;;;;;;;;;5128315;27;20469;-68
2022/01/10 10:58:27;;;;;;;38.40;20.58;;;;;;;;;;5126949;28;20119;-67
2022/01/10 11:00:56;;;;;;;38.45;20.58;;;;;;;;;;5130437;27;20063;-66
2022/01/10 11:03:23;;;;;;;43.92;20.92;;;;;;;;;;5130557;27;20035;-66
2022/01/10 11:05:50;;;;;;;36.35;18.75;;;;;;;;;;5135059;27;20039;-70
2022/01/10 11:08:16;;;;;;;42.25;19.33;;;;;;;;;;5128737;27;20103;-68
2022/01/10 11:10:42;;;;;;;55.03;19.48;;;;;;;;;;5134768;27;20050;-68
2022/01/10 11:13:09;;;;;;;35.13;16.52;;;;;;;;;;5128367;28;20038;-68
2022/01/10 11:15:39;;;;;;;36.13;18.65;;;;;;;;;;5126981;27;20046;-68
2022/01/10 11:18:07;;;;;;;33.53;18.35;;;;;;;;;;5137436;27;20069;-72
2022/01/10 11:20:43;;;;;;;32.67;16.33;;;;;;;;;;5140324;27;20047;-74
2022/01/10 11:23:10;;;;;;;37.33;16.52;;;;;;;;;;5135325;27;20600;-68
2022/01/10 11:25:39;;;;;;;33.78;15.63;;;;;;;;;;5131903;27;20050;-68
2022/01/10 11:28:13;;;;;;;41.17;17.02;;;;;;;;;;5143482;27;20046;-71
2022/01/10 11:30:42;;;;;;;39.70;15.68;;;;;;;;;;5141655;27;20137;-69
2022/01/10 11:33:09;;;;;;;35.25;16.77;;;;;;;;;;5148670;27;20043;-69
2022/01/10 11:35:42;;;;;;;31.20;16.42;;;;;;;;;;5146277;27;20055;-69
2022/01/10 11:38:20;;;;;;;31.90;15.70;;;;;;;;;;5151604;27;20042;-67
2022/01/10 11:40:48;;;;;;;33.05;16.10;;;;;;;;;;5141959;27;20061;-67
2022/01/10 11:43:33;;;;;;;30.73;15.30;;;;;;;;;;5144624;27;20039;-70
2022/01/10 11:46:08;;;;;;;37.38;16.85;;;;;;;;;;5139689;27;20059;-70
2022/01/10 11:49:13;;;;;;;30.75;13.77;;;;;;;;;;5148185;27;20076;-69
2022/01/10 11:51:40;;;;;;;29.60;13.15;;;;;;;;;;5081638;28;20048;-66
2022/01/10 11:54:26;;;;;;;31.83;11.02;;;;;;;;;;5071195;28;20048;-68
2022/01/10 11:56:53;;;;;;;32.28;13.20;;;;;;;;;;5085029;28;20131;-66
2022/01/10 11:59:19;;;;;;;;;;;;;;;;;;5083002;28;20036;-66
2022/01/10 12:01:46;;;;;;;22.83;11.15;;;;;;;;;;5080464;28;19942;-66
2022/01/10 12:04:12;;;;;;;21.63;10.50;;;;;;;;;;5065439;28;20048;-66
2022/01/10 12:06:38;;;;;;;24.58;10.60;;;;;;;;;;5082921;28;20052;-66
2022/01/10 12:09:05;;;;;;;18.92;10.13;;;;;;;;;;5046854;28;20706;-66
2022/01/10 12:11:31;;;;;;;24.00;10.90;;;;;;;;;;5076304;28;20043;-66
2022/01/10 12:13:59;;;;;;;19.35;9.38;;;;;;;;;;5081023;28;20056;-67
2022/01/10 12:16:26;;;;;;;23.63;8.63;;;;;;;;;;5082886;28;20095;-66
2022/01/10 12:18:53;;;;;;;19.38;9.00;;;;;;;;;;5084119;28;21315;-66
2022/01/10 12:21:19;;;;;;;20.63;8.60;;;;;;;;;;5086055;28;20037;-66
2022/01/10 12:23:47;;;;;;;19.70;8.57;;;;;;;;;;5153538;27;20064;-68
2022/01/10 12:26:13;;;;;;;22.02;8.32;;;;;;;;;;5146671;27;20039;-67
2022/01/10 12:28:40;;;;;;;15.80;8.07;;;;;;;;;;5143360;27;20047;-67
2022/01/10 12:31:06;;;;;;;18.73;8.45;;;;;;;;;;5139640;27;20039;-67
2022/01/10 12:33:33;;;;;;;21.63;8.30;;;;;;;;;;5147085;27;20050;-67
2022/01/10 12:36:03;;;;;;;23.42;8.00;;;;;;;;;;5145215;27;20335;-67
2022/01/10 12:38:29;;;;;;;23.17;8.02;;;;;;;;;;5143807;27;20055;-67
2022/01/10 12:40:55;;;;;;;16.20;8.85;;;;;;;;;;5145503;27;20620;-67
2022/01/10 12:43:21;;;;;;;17.70;8.77;;;;;;;;;;5130517;27;20047;-67
2022/01/10 12:45:48;;;;;;;24.77;9.20;;;;;;;;;;5140517;27;20047;-67
2022/01/10 12:48:14;;;;;;;21.17;8.73;;;;;;;;;;5147783;27;20536;-67
2022/01/10 12:50:41;;;;;;;19.05;8.05;;;;;;;;;;5136380;27;20039;-69
2022/01/10 12:53:08;;;;;;;20.08;9.40;;;;;;;;;;5143053;27;20082;-69
2022/01/10 12:55:34;;;;;;;21.67;8.20;;;;;;;;;;5145559;27;20109;-68
2022/01/10 12:58:00;;;;;;;24.95;9.55;;;;;;;;;;5155451;27;20082;-70
2022/01/10 13:00:27;;;;;;;18.27;9.03;;;;;;;;;;5146789;27;20043;-71
2022/01/10 13:02:53;;;;;;;19.80;7.78;;;;;;;;;;5145692;27;20035;-69
2022/01/10 13:05:20;;;;;;;21.30;8.90;;;;;;;;;;5146502;27;20513;-69
2022/01/10 13:07:49;;;;;;;19.83;6.50;;;;;;;;;;5147092;27;20069;-69
2022/01/10 13:10:22;;;;;;;21.10;6.97;;;;;;;;;;5142041;27;20038;-69
2022/01/10 13:12:49;;;;;;;20.10;7.45;;;;;;;;;;5137734;27;20043;-68
2022/01/10 13:15:15;;;;;;;21.80;7.07;;;;;;;;;;5127712;27;20043;-68
2022/01/10 13:17:52;;;;;;;16.27;7.82;;;;;;;;;;5146392;27;20039;-66
2022/01/10 13:20:20;;;;;;;16.60;6.45;;;;;;;;;;5147018;27;20078;-66
2022/01/10 13:22:46;;;;;;;15.85;6.63;;;;;;;;;;5147150;27;20379;-70
2022/01/10 13:25:17;;;;;;;18.65;7.13;;;;;;;;;;5143764;27;20145;-72
2022/01/10 13:27:51;;;;;;;21.27;6.80;;;;;;;;;;5137185;27;20058;-68
2022/01/10 13:30:20;;;;;;;20.17;7.50;;;;;;;;;;5145326;27;20055;-66
2022/01/10 13:32:46;;;;;;;17.20;7.38;;;;;;;;;;5145732;27;20063;-66
2022/01/10 13:35:14;;;;;;;20.40;7.80;;;;;;;;;;5145935;27;20522;-67
2022/01/10 13:37:45;;;;;;;18.25;8.52;;;;;;;;;;5140009;27;20600;-66
2022/01/10 13:40:16;;;;;;;20.40;8.32;;;;;;;;;;5142193;27;20188;-67
2022/01/10 13:42:59;;;;;;;19.65;7.93;;;;;;;;;;5137973;27;20043;-66
2022/01/10 13:45:44;;;;;;;18.75;7.15;;;;;;;;;;5143843;27;20047;-62
2022/01/10 13:48:11;;;;;;;17.00;7.35;;;;;;;;;;5134272;27;20067;-62
2022/01/10 13:50:41;;;;;;;17.48;7.20;;;;;;;;;;5134942;27;20051;-62
2022/01/10 13:53:12;;;;;;;17.65;7.13;;;;;;;;;;5146230;27;20045;-63
2022/01/10 13:55:39;;;;;;;17.25;7.07;;;;;;;;;;5140337;27;20043;-67
2022/01/10 13:58:07;;;;;;;19.48;6.50;;;;;;;;;;5138577;27;20043;-69
2022/01/10 14:00:37;;;;;;;16.75;6.78;;;;;;;;;;5144043;27;20075;-65
2022/01/10 14:03:03;;;;;;;23.35;7.20;;;;;;;;;;5145429;27;20043;-64
2022/01/10 14:05:31;;;;;;;21.52;7.32;;;;;;;;;;5146069;27;20122;-66
2022/01/10 14:08:01;;;;;;;17.98;7.15;;;;;;;;;;5146559;27;20047;-66
2022/01/10 14:10:28;;;;;;;15.88;6.45;;;;;;;;;;5142992;27;20047;-66
2022/01/10 14:12:55;;;;;;;17.02;6.65;;;;;;;;;;5144774;27;20046;-67
2022/01/10 14:15:23;;;;;;;20.55;6.88;;;;;;;;;;5145709;27;20043;-66
2022/01/10 14:17:49;;;;;;;19.73;6.88;;;;;;;;;;5128448;27;20052;-67
2022/01/10 14:20:15;;;;;;;20.88;6.93;;;;;;;;;;5144784;27;20046;-67
2022/01/10 14:22:42;;;;;;;15.18;6.30;;;;;;;;;;5142811;27;20039;-68
2022/01/10 14:25:09;;;;;;;17.67;6.32;;;;;;;;;;5139018;27;20074;-68
2022/01/10 14:27:35;;;;;;;22.33;7.90;;;;;;;;;;5142464;27;20082;-66